Amado, AZ

5:03 AM MST on November 01, 2014 (GMT -0700)
Elephant Head | Change Station
CLOSE
Current Station
Personal Weather Station
Location: Amado, AZ
Elevation: 3155 ft
Nearby Weather Stations

Elev 3155 ft 31.74 °N, 111.01 °W | Updated 3 minutes ago

Partly Cloudy
Partly Cloudy
62.4 °F
Feels Like 62.4 °F
N
3.8
Wind Variable Wind from North
Gusts 5.4 mph

Today
High -- | Low -- °F
--% Chance of Precip.
Yesterday
High -- | Low -- °F
Precip. -- in
6:40 AM 5:34 PM
Waxing Gibbous, 66% visible
Pressure 29.80 in
Visibility 10.0 miles
Clouds Clear
Dew Point 5 °F
Humidity 10%
Rainfall 0.00 in
Snow Depth Not available.
UV 0 out of 12
Pollen 4.60 out of 12
Air Quality Not available.
Flu Activity Not available.
METAR KOLS 011054Z AUTO 16006KT 10SM CLR 15/09 A2998 RMK AO2 SLP091 T01500089

More Conditions Fewer Conditions

Pressure 29.80 in
Visibility 10.0 miles
Clouds Clear
Dew Point 5 °F
Humidity 10%
Rainfall 0.00 in
Snow Depth Not available.
UV 0 out of 12
Pollen 4.60 out of 12
Air Quality Not available.
Flu Activity Not available.
METAR KOLS 011054Z AUTO 16006KT 10SM CLR 15/09 A2998 RMK AO2 SLP091 T01500089

More Conditions Fewer Conditions

10-Day Weather Forecast

Almanac

Astronomy

Nov. 01, 2014 Rise Set
Actual Time
Civil Twilight
Nautical Twilight
Astronomical Twilight
Moon
Length of Visible Light
Length of Day
Tomorrow will be .
, % of the Moon is Illuminated

Today's Extremes

State Highs State Lows

Community

WunderPhotos

Upload Photos

1,766,907 photos uploaded!

WunderBlogs® & News

Nearby

Air Quality

  Air Quality AQ Index Pollutant
Not available.

Snow Depth

Station Depth Elevation

Earthquake Activity

City Distance Mag. Time & Date
Minimum magnitude displayed is 2.5.

Coastal Water Temperatures

Place Temperature

Nearby Weather Stations